East Amwell, New Jersey
Current Conditions -  °F | °C
As of 7:53 AM on Thursday 18 Dec 2014 (Local Time) from KTTN Reporting Station
Overcast Overcast  
Wind Chill: 29°   Ceiling: 3800
Heat Index: 35°   Visibility: 10mi
Dew Point: 21°   Wind: 7mph
Humidity: 57%   Direction: 290°WNW
Pressure: 30.01"   Gusts: NA
Location:  40.4412°N, 74.8354°W
Report Text: KTTN 181253Z 29006KT 10SM OVC038 02/M06 A3001 RMK AO2 SLP157 T00171061
Loading
Personal Weather Stations






























Interactive Weather Map New forecast layout! Learn more

10-Day Weather Forecast

Advertisements
Track Severe Weather on mobile